createdAt,value
2018-11-11T00:00:24.285Z,29.45
2018-11-11T00:02:54.890Z,29.42
2018-11-11T00:05:24.598Z,29.41
2018-11-11T00:07:54.385Z,29.37
2018-11-11T00:10:29.664Z,29.35
2018-11-11T00:13:00.407Z,29.28
2018-11-11T00:15:30.207Z,29.24
2018-11-11T00:17:59.917Z,29.13
2018-11-11T00:20:29.679Z,29.16
2018-11-11T00:22:59.489Z,29.12
2018-11-11T00:25:29.171Z,29.00
2018-11-11T00:27:58.876Z,28.94
2018-11-11T00:30:28.587Z,28.95
2018-11-11T00:32:58.297Z,28.83
2018-11-11T00:35:27.998Z,28.83
2018-11-11T00:37:58.126Z,28.81
2018-11-11T00:40:27.854Z,28.77
2018-11-11T00:42:57.575Z,28.69
2018-11-11T00:45:27.345Z,28.67
2018-11-11T00:47:57.054Z,28.57
2018-11-11T00:50:26.656Z,28.57
2018-11-11T00:52:56.644Z,28.53
2018-11-11T00:55:30.714Z,28.52
2018-11-11T00:58:00.431Z,28.38
2018-11-11T01:00:30.258Z,28.36
2018-11-11T01:03:00.047Z,28.38
2018-11-11T01:05:29.926Z,28.30
2018-11-11T01:07:59.639Z,28.26
2018-11-11T01:10:29.346Z,28.23
2018-11-11T01:12:59.061Z,28.22
2018-11-11T01:15:28.726Z,28.18
2018-11-11T01:17:58.543Z,28.09
2018-11-11T01:20:28.311Z,28.07
2018-11-11T01:22:58.535Z,27.98
2018-11-11T01:25:28.319Z,27.80
2018-11-11T01:27:58.079Z,27.77
2018-11-11T01:30:27.835Z,27.72
2018-11-11T01:32:57.813Z,27.73
2018-11-11T01:35:27.628Z,27.74
2018-11-11T01:37:57.439Z,27.61
2018-11-11T01:40:27.735Z,27.60
2018-11-11T01:42:57.494Z,27.55
2018-11-11T01:45:27.207Z,27.54
2018-11-11T01:47:56.951Z,27.52
2018-11-11T01:50:26.902Z,27.45
2018-11-11T01:52:56.676Z,27.43
2018-11-11T01:55:26.474Z,27.42
2018-11-11T01:57:56.358Z,27.36
2018-11-11T02:00:26.176Z,27.37
2018-11-11T02:02:55.874Z,27.27
2018-11-11T02:05:25.654Z,27.24
2018-11-11T02:07:55.470Z,27.19
2018-11-11T02:10:25.795Z,27.20
2018-11-11T02:12:55.558Z,27.10
2018-11-11T02:15:25.619Z,27.09
2018-11-11T02:17:55.731Z,27.12
2018-11-11T02:20:25.815Z,27.09
2018-11-11T02:22:55.593Z,26.98
2018-11-11T02:25:25.577Z,26.93
2018-11-11T02:27:55.592Z,26.86
2018-11-11T02:30:25.371Z,26.87
2018-11-11T02:32:55.652Z,26.81
2018-11-11T02:35:25.459Z,26.75
2018-11-11T02:37:55.308Z,26.71
2018-11-11T02:40:25.084Z,26.70
2018-11-11T02:42:54.866Z,26.66
2018-11-11T02:45:24.843Z,26.62
2018-11-11T02:47:54.643Z,26.63
2018-11-11T02:50:24.358Z,26.60
2018-11-11T02:52:54.166Z,26.53
2018-11-11T02:55:23.816Z,26.49
2018-11-11T02:57:53.563Z,26.45
2018-11-11T03:00:23.224Z,26.39
2018-11-11T03:02:52.982Z,26.36
2018-11-11T03:05:22.707Z,26.36
2018-11-11T03:07:52.531Z,26.37
2018-11-11T03:10:22.335Z,26.31
2018-11-11T03:12:52.158Z,26.30
2018-11-11T03:15:21.922Z,26.27
2018-11-11T03:17:51.914Z,26.24
2018-11-11T03:20:21.719Z,26.21
2018-11-11T03:22:51.526Z,26.17
2018-11-11T03:25:21.238Z,26.11
2018-11-11T03:27:51.100Z,26.13
2018-11-11T03:30:21.083Z,26.08
2018-11-11T03:32:51.054Z,26.08
2018-11-11T03:35:20.743Z,26.04
2018-11-11T03:37:50.514Z,26.02
2018-11-11T03:40:21.211Z,25.99
2018-11-11T03:42:51.622Z,25.92
2018-11-11T03:45:21.855Z,25.90
2018-11-11T03:47:52.679Z,25.91
2018-11-11T03:50:22.747Z,25.86
2018-11-11T03:52:52.478Z,25.88
2018-11-11T03:55:22.170Z,25.78
2018-11-11T03:57:51.904Z,25.82
2018-11-11T04:00:21.703Z,25.79
2018-11-11T04:02:51.503Z,25.74
2018-11-11T04:05:21.325Z,25.72
2018-11-11T04:07:51.123Z,25.72
2018-11-11T04:10:20.946Z,25.68
2018-11-11T04:12:50.737Z,25.66
2018-11-11T04:15:21.144Z,25.62
2018-11-11T04:17:50.898Z,25.59
2018-11-11T04:20:21.239Z,25.58
2018-11-11T04:22:51.069Z,25.57
2018-11-11T04:25:20.940Z,25.53
2018-11-11T04:27:50.761Z,25.50
2018-11-11T04:30:20.563Z,25.49
2018-11-11T04:32:50.438Z,25.42
2018-11-11T04:35:20.122Z,25.44
2018-11-11T04:37:49.858Z,25.39
2018-11-11T04:40:19.637Z,25.38
2018-11-11T04:42:49.410Z,25.33
2018-11-11T04:45:19.229Z,25.29
2018-11-11T04:47:49.030Z,25.29
2018-11-11T04:50:19.165Z,25.29
2018-11-11T04:52:48.999Z,25.28
2018-11-11T04:55:18.768Z,25.29
2018-11-11T04:57:48.713Z,25.29
2018-11-11T05:00:18.487Z,25.25
2018-11-11T05:02:48.258Z,25.22
2018-11-11T05:05:18.007Z,25.19
2018-11-11T05:07:47.797Z,25.16
2018-11-11T05:10:17.606Z,25.13
2018-11-11T05:12:47.306Z,25.11
2018-11-11T05:15:17.013Z,25.01
2018-11-11T05:17:46.798Z,24.89
2018-11-11T05:20:16.574Z,24.83
2018-11-11T05:22:46.309Z,24.77
2018-11-11T05:25:16.311Z,24.73
2018-11-11T05:27:45.964Z,24.69
2018-11-11T05:30:16.027Z,24.76
2018-11-11T05:32:45.863Z,24.87
2018-11-11T05:35:16.622Z,24.84
2018-11-11T05:37:46.406Z,24.88
2018-11-11T05:40:16.278Z,24.87
2018-11-11T05:42:46.031Z,24.84
2018-11-11T05:45:16.255Z,24.84
2018-11-11T05:47:45.986Z,24.82
2018-11-11T05:50:16.753Z,24.79
2018-11-11T05:52:47.302Z,24.75
2018-11-11T05:55:17.032Z,24.72
2018-11-11T05:57:46.844Z,24.74
2018-11-11T06:00:17.742Z,24.74
2018-11-11T06:02:47.587Z,24.73
2018-11-11T06:05:17.402Z,24.73
2018-11-11T06:07:47.210Z,24.70
2018-11-11T06:10:17.083Z,24.68
2018-11-11T06:12:46.790Z,24.64
2018-11-11T06:15:16.575Z,24.62
2018-11-11T06:17:46.273Z,24.55
2018-11-11T06:20:16.969Z,24.58
2018-11-11T06:22:46.764Z,24.58
2018-11-11T06:25:16.578Z,24.57
2018-11-11T06:27:46.390Z,24.52
2018-11-11T06:30:16.278Z,24.51
2018-11-11T06:32:46.003Z,24.54
2018-11-11T06:35:15.692Z,24.58
2018-11-11T06:37:45.423Z,24.55
2018-11-11T06:40:15.201Z,24.55
2018-11-11T06:42:45.292Z,24.52
2018-11-11T06:45:15.912Z,24.53
2018-11-11T06:47:45.823Z,24.44
2018-11-11T06:50:16.148Z,24.48
2018-11-11T06:52:45.971Z,24.48
2018-11-11T06:55:15.782Z,24.49
2018-11-11T06:57:45.595Z,24.46
2018-11-11T07:00:16.507Z,24.41
2018-11-11T07:02:57.297Z,24.41
2018-11-11T07:05:27.067Z,24.45
2018-11-11T07:07:56.803Z,24.43
2018-11-11T07:10:26.627Z,24.36
2018-11-11T07:12:56.430Z,24.40
2018-11-11T07:15:26.221Z,24.39
2018-11-11T07:17:56.024Z,24.37
2018-11-11T07:20:25.797Z,24.37
2018-11-11T07:22:55.583Z,24.35
2018-11-11T07:25:25.254Z,24.34
2018-11-11T07:27:55.062Z,24.34
2018-11-11T07:30:24.739Z,24.33
2018-11-11T07:32:54.474Z,24.29
2018-11-11T07:35:24.425Z,24.31
2018-11-11T07:37:54.183Z,24.30
2018-11-11T07:40:24.103Z,24.27
2018-11-11T07:42:54.069Z,24.29
2018-11-11T07:45:23.743Z,24.28
2018-11-11T07:47:53.669Z,24.22
2018-11-11T07:50:23.203Z,24.21
2018-11-11T07:52:52.679Z,24.20
2018-11-11T07:55:22.182Z,24.19
2018-11-11T07:57:51.672Z,24.20
2018-11-11T08:00:21.158Z,24.21
2018-11-11T08:02:51.675Z,24.20
2018-11-11T08:05:22.380Z,24.16
2018-11-11T08:07:52.172Z,24.22
2018-11-11T08:10:33.143Z,24.22
2018-11-11T08:13:02.890Z,24.17
2018-11-11T08:15:32.595Z,24.14
2018-11-11T08:18:02.867Z,24.14
2018-11-11T08:20:32.629Z,24.10
2018-11-11T08:23:02.406Z,24.10
2018-11-11T08:25:32.141Z,24.07
2018-11-11T08:28:01.852Z,24.11
2018-11-11T08:30:31.614Z,24.06
2018-11-11T08:33:01.545Z,24.04
2018-11-11T08:35:31.330Z,24.05
2018-11-11T08:38:01.120Z,24.07
2018-11-11T08:40:31.124Z,24.05
2018-11-11T08:43:00.863Z,24.04
2018-11-11T08:45:30.615Z,24.04
2018-11-11T08:48:00.405Z,24.01
2018-11-11T08:50:30.494Z,24.01
2018-11-11T08:53:00.335Z,24.03
2018-11-11T08:55:30.146Z,24.01
2018-11-11T08:57:59.964Z,23.98
2018-11-11T09:00:29.687Z,23.94
2018-11-11T09:02:59.471Z,23.96
2018-11-11T09:05:29.179Z,23.97
2018-11-11T09:07:58.817Z,23.95
2018-11-11T09:10:28.600Z,23.92
2018-11-11T09:12:58.677Z,23.93
2018-11-11T09:15:28.555Z,23.95
2018-11-11T09:17:58.294Z,23.95
2018-11-11T09:20:28.078Z,23.91
2018-11-11T09:22:57.782Z,23.90
2018-11-11T09:25:27.553Z,23.89
2018-11-11T09:27:57.364Z,23.92
2018-11-11T09:30:27.235Z,23.92
2018-11-11T09:32:56.828Z,23.90
2018-11-11T09:35:26.596Z,23.90
2018-11-11T09:37:56.739Z,23.87
2018-11-11T09:40:26.487Z,23.87
2018-11-11T09:42:56.404Z,23.86
2018-11-11T09:45:26.147Z,23.83
2018-11-11T09:47:55.936Z,23.84
2018-11-11T09:50:25.664Z,23.83
2018-11-11T09:52:55.482Z,23.82
2018-11-11T09:55:25.184Z,23.83
2018-11-11T09:57:55.680Z,23.81
2018-11-11T10:00:25.456Z,23.78
2018-11-11T10:03:01.173Z,23.81
2018-11-11T10:06:09.895Z,23.80
2018-11-11T10:08:55.410Z,23.78
2018-11-11T10:11:59.126Z,23.75
2018-11-11T10:14:47.320Z,23.77
2018-11-11T10:17:23.479Z,23.77
2018-11-11T10:19:59.795Z,23.78
2018-11-11T10:22:34.351Z,23.81
2018-11-11T10:25:40.425Z,23.80
2018-11-11T10:28:17.197Z,23.81
2018-11-11T10:30:57.352Z,23.80
2018-11-11T10:33:34.914Z,23.81
2018-11-11T10:36:38.957Z,23.81
2018-11-11T10:39:19.418Z,23.81
2018-11-11T10:42:55.275Z,23.78
2018-11-11T10:45:29.868Z,23.79
2018-11-11T10:48:03.907Z,23.79
2018-11-11T10:50:45.323Z,23.80
2018-11-11T10:53:15.127Z,23.79
2018-11-11T10:55:44.748Z,23.80
2018-11-11T10:58:14.532Z,23.81
2018-11-11T11:00:49.564Z,23.81
2018-11-11T11:03:24.458Z,23.81
2018-11-11T11:05:54.234Z,23.79
2018-11-11T11:08:24.035Z,23.80
2018-11-11T11:10:53.867Z,23.79
2018-11-11T11:13:23.611Z,23.79
2018-11-11T11:15:53.564Z,23.81
2018-11-11T11:18:23.334Z,23.80
2018-11-11T11:20:53.138Z,23.80
2018-11-11T11:23:23.131Z,23.79
2018-11-11T11:25:52.875Z,23.79
2018-11-11T11:28:22.651Z,23.81
2018-11-11T11:30:52.402Z,23.79
2018-11-11T11:33:22.082Z,23.81
2018-11-11T11:35:51.935Z,23.81
2018-11-11T11:38:21.738Z,23.81
2018-11-11T11:40:51.661Z,23.82
2018-11-11T11:43:21.468Z,23.82
2018-11-11T11:45:51.544Z,23.82
2018-11-11T11:48:21.643Z,23.84
2018-11-11T11:50:51.396Z,23.84
2018-11-11T11:53:21.576Z,23.85
2018-11-11T11:55:51.244Z,23.85
2018-11-11T11:58:27.346Z,23.84
2018-11-11T12:00:57.066Z,23.85
2018-11-11T12:03:26.807Z,23.86
2018-11-11T12:05:56.667Z,23.87
2018-11-11T12:08:26.596Z,23.88
2018-11-11T12:10:56.367Z,23.88
2018-11-11T12:13:26.103Z,23.88
2018-11-11T12:15:55.830Z,23.88
2018-11-11T12:18:25.574Z,23.89
2018-11-11T12:20:55.395Z,23.89
2018-11-11T12:23:25.172Z,23.90
2018-11-11T12:25:54.915Z,23.91
2018-11-11T12:28:24.830Z,23.89
2018-11-11T12:30:54.928Z,23.90
2018-11-11T12:33:24.655Z,23.91
2018-11-11T12:35:54.426Z,23.90
2018-11-11T12:38:24.114Z,23.90
2018-11-11T12:40:53.878Z,23.92
2018-11-11T12:43:23.742Z,23.92
2018-11-11T12:45:53.458Z,23.91
2018-11-11T12:48:23.203Z,23.90
2018-11-11T12:50:52.956Z,23.90
2018-11-11T12:53:22.832Z,23.92
2018-11-11T12:55:52.712Z,23.90
2018-11-11T12:58:22.886Z,23.87
2018-11-11T13:00:52.671Z,23.85
2018-11-11T13:03:22.632Z,23.84
2018-11-11T13:05:52.382Z,23.82
2018-11-11T13:08:22.171Z,23.81
2018-11-11T13:10:51.880Z,23.79
2018-11-11T13:13:21.589Z,23.77
2018-11-11T13:15:51.297Z,23.76
2018-11-11T13:18:20.907Z,23.76
2018-11-11T13:20:50.602Z,23.75
2018-11-11T13:23:20.393Z,23.75
2018-11-11T13:25:50.203Z,23.73
2018-11-11T13:28:19.938Z,23.73
2018-11-11T13:30:49.679Z,23.73
2018-11-11T13:33:19.392Z,23.71
2018-11-11T13:35:49.163Z,23.71
2018-11-11T13:38:18.889Z,23.71
2018-11-11T13:40:48.554Z,23.70
2018-11-11T13:43:18.999Z,23.68
2018-11-11T13:45:48.751Z,23.68
2018-11-11T13:48:18.487Z,23.67
2018-11-11T13:50:48.158Z,23.66
2018-11-11T13:53:17.839Z,23.67
2018-11-11T13:55:47.648Z,23.64
2018-11-11T13:58:17.367Z,23.63
2018-11-11T14:00:46.968Z,23.65
2018-11-11T14:03:16.980Z,23.67
2018-11-11T14:05:46.718Z,23.63
2018-11-11T14:08:16.560Z,23.63
2018-11-11T14:10:46.281Z,23.64
2018-11-11T14:13:16.030Z,23.62
2018-11-11T14:15:45.628Z,23.60
2018-11-11T14:18:15.419Z,23.62
2018-11-11T14:20:45.043Z,23.62
2018-11-11T14:23:15.264Z,23.60
2018-11-11T14:25:44.978Z,23.59
2018-11-11T14:28:14.819Z,23.61
2018-11-11T14:30:44.594Z,23.59
2018-11-11T14:33:14.339Z,23.60
2018-11-11T14:35:44.099Z,23.58
2018-11-11T14:38:13.873Z,23.58
2018-11-11T14:40:43.606Z,23.58
2018-11-11T14:43:13.418Z,23.57
2018-11-11T14:45:43.191Z,23.58
2018-11-11T14:48:13.010Z,23.56
2018-11-11T14:50:43.156Z,23.55
2018-11-11T14:53:13.239Z,23.56
2018-11-11T14:55:42.908Z,23.53
2018-11-11T14:58:12.769Z,23.54
2018-11-11T15:00:42.511Z,23.53
2018-11-11T15:03:15.464Z,23.51
2018-11-11T15:05:45.128Z,23.50
2018-11-11T15:08:14.847Z,23.51
2018-11-11T15:10:44.615Z,23.51
2018-11-11T15:13:15.428Z,23.50
2018-11-11T15:15:45.134Z,23.49
2018-11-11T15:18:14.971Z,23.48
2018-11-11T15:20:44.757Z,23.48
2018-11-11T15:23:14.453Z,23.49
2018-11-11T15:25:44.215Z,23.47
2018-11-11T15:28:13.942Z,23.45
2018-11-11T15:30:43.959Z,23.44
2018-11-11T15:33:14.026Z,23.46
2018-11-11T15:35:43.910Z,23.46
2018-11-11T15:38:13.727Z,23.46
2018-11-11T15:40:43.508Z,23.45
2018-11-11T15:43:13.242Z,23.44
2018-11-11T15:45:43.020Z,23.40
2018-11-11T15:48:12.960Z,23.42
2018-11-11T15:50:42.643Z,23.41
2018-11-11T15:53:12.354Z,23.41
2018-11-11T15:55:42.054Z,23.41
2018-11-11T15:58:11.863Z,23.38
2018-11-11T16:00:42.754Z,23.40
2018-11-11T16:03:12.935Z,23.38
2018-11-11T16:05:42.919Z,23.39
2018-11-11T16:08:12.827Z,23.38
2018-11-11T16:10:42.599Z,23.39
2018-11-11T16:13:12.426Z,23.39
2018-11-11T16:15:42.755Z,23.39
2018-11-11T16:18:14.635Z,23.40
2018-11-11T16:20:44.646Z,23.37
2018-11-11T16:23:14.449Z,23.40
2018-11-11T16:25:44.278Z,23.35
2018-11-11T16:28:14.229Z,23.35
2018-11-11T16:30:44.019Z,23.36
2018-11-11T16:33:13.850Z,23.35
2018-11-11T16:35:43.538Z,23.35
2018-11-11T16:38:13.583Z,23.36
2018-11-11T16:40:43.391Z,23.35
2018-11-11T16:43:13.191Z,23.33
2018-11-11T16:45:43.022Z,23.35
2018-11-11T16:48:12.955Z,23.34
2018-11-11T16:50:42.679Z,23.34
2018-11-11T16:53:12.527Z,23.31
2018-11-11T16:55:42.227Z,23.28
2018-11-11T16:58:11.940Z,23.30
2018-11-11T17:00:41.715Z,23.32
2018-11-11T17:03:11.489Z,23.31
2018-11-11T17:05:41.274Z,23.31
2018-11-11T17:08:11.400Z,23.30
2018-11-11T17:10:40.979Z,23.31
2018-11-11T17:13:13.432Z,23.29
2018-11-11T17:15:43.199Z,23.28
2018-11-11T17:18:12.950Z,23.28
2018-11-11T17:20:43.903Z,23.28
2018-11-11T17:23:13.751Z,23.29
2018-11-11T17:25:43.543Z,23.29
2018-11-11T17:28:13.469Z,23.28
2018-11-11T17:30:43.134Z,23.28
2018-11-11T17:33:13.133Z,23.27
2018-11-11T17:35:42.779Z,23.28
2018-11-11T17:38:13.075Z,23.27
2018-11-11T17:40:42.890Z,23.25
2018-11-11T17:43:12.654Z,23.24
2018-11-11T17:45:42.435Z,23.22
2018-11-11T17:48:12.259Z,23.23
2018-11-11T17:50:42.037Z,23.23
2018-11-11T17:53:11.843Z,23.21
2018-11-11T17:55:41.936Z,23.22
2018-11-11T17:58:11.632Z,23.22
2018-11-11T18:00:41.859Z,23.24
2018-11-11T18:03:12.300Z,23.21
2018-11-11T18:05:42.051Z,23.21
2018-11-11T18:08:12.226Z,23.19
2018-11-11T18:10:42.097Z,23.20
2018-11-11T18:13:12.068Z,23.19
2018-11-11T18:15:43.496Z,23.19
2018-11-11T18:18:13.551Z,23.21
2018-11-11T18:20:43.480Z,23.20
2018-11-11T18:23:13.358Z,23.19
2018-11-11T18:25:43.028Z,23.18
2018-11-11T18:28:12.917Z,23.16
2018-11-11T18:30:42.833Z,23.17
2018-11-11T18:33:12.714Z,23.15
2018-11-11T18:35:42.683Z,23.17
2018-11-11T18:38:12.532Z,23.16
2018-11-11T18:40:42.297Z,23.13
2018-11-11T18:43:12.136Z,23.15
2018-11-11T18:45:42.007Z,23.13
2018-11-11T18:48:11.876Z,23.13
2018-11-11T18:50:41.608Z,23.13
2018-11-11T18:53:12.494Z,23.13
2018-11-11T18:55:42.359Z,23.13
2018-11-11T18:58:12.383Z,23.12
2018-11-11T19:00:42.436Z,23.12
2018-11-11T19:03:12.654Z,23.12
2018-11-11T19:05:42.399Z,23.10
2018-11-11T19:08:12.239Z,23.10
2018-11-11T19:10:42.006Z,23.08
2018-11-11T19:13:11.923Z,23.09
2018-11-11T19:15:41.671Z,23.08
2018-11-11T19:18:11.722Z,23.06
2018-11-11T19:20:41.739Z,23.03
2018-11-11T19:23:11.563Z,23.08
2018-11-11T19:25:41.360Z,23.08
2018-11-11T19:28:11.106Z,23.08
2018-11-11T19:30:40.960Z,23.07
2018-11-11T19:33:10.897Z,23.08
2018-11-11T19:35:40.795Z,23.10
2018-11-11T19:38:10.767Z,23.10
2018-11-11T19:40:40.566Z,23.08
2018-11-11T19:43:10.296Z,23.09
2018-11-11T19:45:39.993Z,23.10
2018-11-11T19:48:10.523Z,23.09
2018-11-11T19:50:40.580Z,23.08
2018-11-11T19:53:10.467Z,23.08
2018-11-11T19:55:40.339Z,23.07
2018-11-11T19:58:10.158Z,23.06
2018-11-11T20:00:39.955Z,23.03
2018-11-11T20:03:09.882Z,23.02
2018-11-11T20:05:39.806Z,23.03
2018-11-11T20:08:09.719Z,23.02
2018-11-11T20:10:39.522Z,23.02
2018-11-11T20:13:10.600Z,22.99
2018-11-11T20:15:40.676Z,22.98
2018-11-11T20:18:10.702Z,22.98
2018-11-11T20:20:40.864Z,22.99
2018-11-11T20:23:11.177Z,22.99
2018-11-11T20:25:40.955Z,22.97
2018-11-11T20:28:10.843Z,22.95
2018-11-11T20:30:40.555Z,22.96
2018-11-11T20:33:10.442Z,22.97
2018-11-11T20:35:40.566Z,22.96
2018-11-11T20:38:10.459Z,22.95
2018-11-11T20:40:40.350Z,22.94
2018-11-11T20:43:10.235Z,22.94
2018-11-11T20:45:39.970Z,22.93
2018-11-11T20:48:09.798Z,22.93
2018-11-11T20:50:39.747Z,22.94
2018-11-11T20:53:09.538Z,22.92
2018-11-11T20:55:39.465Z,22.92
2018-11-11T20:58:09.519Z,22.91
2018-11-11T21:00:39.608Z,22.92
2018-11-11T21:03:09.644Z,22.91
2018-11-11T21:05:40.060Z,22.92
2018-11-11T21:08:09.894Z,22.91
2018-11-11T21:10:39.603Z,22.90
2018-11-11T21:13:09.783Z,22.90
2018-11-11T21:15:39.772Z,22.92
2018-11-11T21:18:10.618Z,22.91
2018-11-11T21:20:40.530Z,22.90
2018-11-11T21:23:10.796Z,22.90
2018-11-11T21:25:40.679Z,22.89
2018-11-11T21:28:10.666Z,22.89
2018-11-11T21:30:40.437Z,22.89
2018-11-11T21:33:10.171Z,22.87
2018-11-11T21:35:39.956Z,22.89
2018-11-11T21:38:10.057Z,22.87
2018-11-11T21:40:40.036Z,22.86
2018-11-11T21:43:10.037Z,22.86
2018-11-11T21:45:39.932Z,22.86
2018-11-11T21:48:09.888Z,22.87
2018-11-11T21:50:39.614Z,22.85
2018-11-11T21:53:31.115Z,22.85
2018-11-11T21:56:01.323Z,22.83
2018-11-11T21:58:31.108Z,22.83
2018-11-11T22:01:00.959Z,22.84
2018-11-11T22:03:30.773Z,22.83
2018-11-11T22:06:00.452Z,22.83
2018-11-11T22:08:30.806Z,22.83
2018-11-11T22:11:00.543Z,22.83
2018-11-11T22:13:30.253Z,22.83
2018-11-11T22:16:00.250Z,22.82
2018-11-11T22:18:29.940Z,22.80
2018-11-11T22:20:59.734Z,22.79
2018-11-11T22:23:29.569Z,22.79
2018-11-11T22:25:59.351Z,22.79
2018-11-11T22:28:29.153Z,22.78
2018-11-11T22:30:59.143Z,22.77
2018-11-11T22:33:28.938Z,22.76
2018-11-11T22:35:58.633Z,22.76
2018-11-11T22:38:28.347Z,22.75
2018-11-11T22:40:58.123Z,22.76
2018-11-11T22:43:27.851Z,22.75
2018-11-11T22:45:57.639Z,22.75
2018-11-11T22:48:27.370Z,22.74
2018-11-11T22:50:57.163Z,22.75
2018-11-11T22:53:27.103Z,22.74
2018-11-11T22:55:56.859Z,22.72
2018-11-11T22:58:26.498Z,22.71
2018-11-11T23:01:01.508Z,22.71
2018-11-11T23:03:31.169Z,22.72
2018-11-11T23:06:00.946Z,22.71
2018-11-11T23:08:30.708Z,22.69
2018-11-11T23:11:00.740Z,22.69
2018-11-11T23:13:30.529Z,22.68
2018-11-11T23:16:00.626Z,22.68
2018-11-11T23:18:30.322Z,22.66
2018-11-11T23:21:00.096Z,22.65
2018-11-11T23:23:29.874Z,22.68
2018-11-11T23:25:59.647Z,22.68
2018-11-11T23:28:29.595Z,22.66
2018-11-11T23:30:59.211Z,22.67
2018-11-11T23:33:28.983Z,22.66
2018-11-11T23:35:58.790Z,22.65
2018-11-11T23:38:28.810Z,22.66
2018-11-11T23:40:58.508Z,22.66
2018-11-11T23:43:28.238Z,22.65
2018-11-11T23:45:58.067Z,22.65
2018-11-11T23:48:27.755Z,22.64
2018-11-11T23:50:57.895Z,22.64
2018-11-11T23:53:27.626Z,22.64
2018-11-11T23:55:57.432Z,22.64
2018-11-11T23:58:27.410Z,22.63
